MST,Max TemperatureF,Mean TemperatureF,Min TemperatureF,Max Dew PointF,MeanDew PointF,Min DewpointF,Max Humidity, Mean Humidity, Min Humidity, Max Sea Level PressureIn, Mean Sea Level PressureIn, Min Sea Level PressureIn, Max VisibilityMiles, Mean VisibilityMiles, Min VisibilityMiles, Max Wind SpeedMPH, Mean Wind SpeedMPH, Max Gust SpeedMPH,PrecipitationIn, CloudCover, Events, WindDirDegrees
2012-12-1,61,47,32,37,31,27,89,58,27,29.79,29.74,29.69,10,10,10,16,7,21,T,2,,186
2012-12-2,53,44,35,38,31,27,75,62,48,29.74,29.49,29.30,10,10,10,33,11,44,T,2,Rain,160
2012-12-3,53,44,35,29,20,16,52,38,24,30.10,29.87,29.60,10,10,10,35,18,44,0.00,0,,269
2012-12-4,46,37,27,23,21,19,75,56,37,30.18,30.07,29.93,10,10,10,14,9,15,0.00,2,,164
2012-12-5,57,45,32,32,25,19,64,47,29,30.01,29.81,29.65,10,10,10,25,10,35,0.00,2,,208
2012-12-6,43,34,24,31,22,14,92,63,33,30.10,30.00,29.90,10,8,0,13,6,15,T,5,Fog-Snow,234
2012-12-7,36,30,24,32,29,22,100,93,85,29.97,29.88,29.76,10,6,1,14,6,15,0.03,6,Snow,172
2012-12-8,31,16,1,26,13,-4,85,79,73,30.44,29.88,29.56,10,5,0,29,15,35,T,7,Fog-Snow,336
2012-12-9,16,7,-3,7,2,-6,95,78,61,30.56,30.36,29.99,10,10,10,14,8,16,0.00,4,,168
2012-12-10,33,24,14,25,19,8,81,71,60,29.95,29.91,29.83,10,10,10,26,11,36,0.00,7,,279
2012-12-11,34,25,15,25,19,11,80,72,63,29.91,29.72,29.59,10,10,10,14,8,15,0.00,4,,173
2012-12-12,38,32,26,32,29,22,96,83,69,29.91,29.74,29.59,10,6,0,10,4,13,0.12,8,Fog-Rain-Snow,352
2012-12-13,34,28,21,32,30,19,100,94,88,29.97,29.88,29.77,10,2,0,10,3,12,T,8,Fog-Snow,187
2012-12-14,33,25,17,30,24,14,96,90,84,29.84,29.71,29.60,10,6,0,9,4,10,0.00,2,Fog,15
2012-12-15,34,27,20,25,22,18,96,84,72,29.84,29.80,29.68,10,10,2,9,5,10,0.00,2,,188
2012-12-16,36,28,19,27,21,16,92,78,64,29.76,29.73,29.69,10,10,9,13,5,17,0.00,4,,279
2012-12-17,35,27,19,25,19,15,91,74,56,29.70,29.52,29.41,10,10,10,15,8,18,0.00,4,,161
2012-12-18,37,28,18,24,16,10,85,60,35,29.86,29.69,29.51,10,10,10,32,16,41,T,4,,277
2012-12-19,33,24,14,19,14,7,91,65,38,30.16,30.00,29.81,10,8,2,20,7,24,T,4,Snow,275
2012-12-20,40,25,10,15,9,4,76,54,32,30.17,30.11,30.05,10,10,10,13,9,14,0.00,0,,162
2012-12-21,36,26,16,17,14,12,84,64,44,30.09,30.05,30.01,10,10,10,15,7,17,0.00,0,,170
2012-12-22,18,13,8,13,7,4,88,75,61,30.25,30.13,30.04,10,9,3,18,10,22,0.00,3,,30
2012-12-23,17,7,-4,9,5,-7,88,75,61,30.20,30.06,29.90,10,7,1,15,7,17,0.01,5,Snow,318
2012-12-24,10,3,-4,3,1,-6,87,80,73,30.52,30.29,30.14,10,6,2,17,9,21,T,6,Snow,24
2012-12-25,9,0,-9,1,-1,-9,87,78,69,30.54,30.40,30.27,10,6,1,10,4,12,0.03,5,Snow,318
2012-12-26,6,-1,-8,2,-5,-12,87,81,75,30.25,30.11,29.96,10,10,5,16,10,18,T,3,,32
2012-12-27,11,4,-3,4,0,-7,95,84,73,30.15,30.08,29.89,10,9,2,10,5,12,T,5,Snow,260
2012-12-28,21,10,-2,13,5,-6,100,87,73,30.16,30.10,29.92,10,9,2,10,5,13,T,5,Snow,192
2012-12-29,26,16,6,16,10,5,88,76,63,30.19,30.12,30.06,10,10,10,10,6,12,0.00,0,,181
2012-12-30,29,17,5,23,16,2,92,84,75,30.18,30.10,29.99,10,8,1,10,5,12,0.01,7,Snow,236
2012-12-31,23,14,5,17,10,2,92,80,67,30.19,30.12,30.04,10,6,0,8,4,9,0.00,4,Fog,202